Time;durP1;ratioP1;P1;durP2;ratioP2;P2;SDS_P1;SDS_P2;PMS_P1;PMS_P2;Temp;Humidity;BMP_temperature;BMP_pressure;BME280_temperature;BME280_humidity;BME280_pressure;Samples;Min_cycle;Max_cycle;Signal;HPM_P1;HPM_P2
2021/10/29 00:01:10;;;;;;;;;;;;;;;21.31;31.66;98886.28;4959924;29;1053;-79
2021/10/29 00:03:35;;;;;;;;;;;;;;;21.40;31.51;98882.97;4958094;29;1977;-79
2021/10/29 00:06:00;;;;;;;;;;;;;;;21.42;31.64;98879.72;4960497;29;914;-79
2021/10/29 00:08:26;;;;;;;;;;;;;;;21.47;31.56;98882.06;4957674;29;968;-79
2021/10/29 00:10:51;;;;;;;;;;;;;;;21.70;31.19;98882.16;4960684;29;904;-79
2021/10/29 00:13:17;;;;;;;;;;;;;;;22.00;30.68;98878.53;4957986;29;1160;-79
2021/10/29 00:15:42;;;;;;;;;;;;;;;22.15;30.11;98882.00;4959880;29;1148;-78
2021/10/29 00:18:08;;;;;;;;;;;;;;;21.76;30.76;98869.16;4962743;28;1216;-79
2021/10/29 00:20:33;;;;;;;;;;;;;;;21.72;30.30;98871.22;4959467;29;1035;-79
2021/10/29 00:22:59;;;;;;;;;;;;;;;21.57;30.64;98858.47;4958372;29;1993;-78
2021/10/29 00:25:24;;;;;;;;;;;;;;;21.46;30.89;98858.63;4958726;29;970;-79
2021/10/29 00:27:50;;;;;;;;;;;;;;;21.47;30.78;98851.72;4958921;29;922;-79
2021/10/29 00:30:15;;;;;;;;;;;;;;;21.41;30.63;98844.13;4958480;29;968;-79
2021/10/29 00:32:41;;;;;;;;;;;;;;;21.58;31.26;98843.09;4959315;29;1056;-79
2021/10/29 00:35:06;;;;;;;;;;;;;;;22.15;30.59;98847.97;4958228;29;894;-79
2021/10/29 00:37:37;;;;;;;;;;;;;;;21.96;30.57;98842.97;4963438;28;1043;-79
2021/10/29 00:40:03;;;;;;;;;;;;;;;21.71;30.89;98846.97;5002857;28;941;-79
2021/10/29 00:42:29;;;;;;;;;;;;;;;21.56;30.98;98839.91;5001553;28;1923;-79
2021/10/29 00:44:55;;;;;;;;;;;;;;;21.60;31.22;98843.47;5000223;28;969;-79
2021/10/29 00:47:21;;;;;;;;;;;;;;;21.64;31.01;98829.25;5001773;28;918;-79
2021/10/29 00:49:46;;;;;;;;;;;;;;;21.71;31.05;98832.81;5000374;28;929;-79
2021/10/29 00:52:11;;;;;;;;;;;;;;;21.66;30.82;98833.28;5002519;28;1044;-79
2021/10/29 00:54:37;;;;;;;;;;;;;;;21.69;31.03;98826.75;4983964;28;919;-79
2021/10/29 00:57:03;;;;;;;;;;;;;;;21.54;31.32;98825.34;5001971;28;916;-79
2021/10/29 00:59:28;;;;;;;;;;;;;;;21.49;31.27;98831.47;5000338;28;1019;-79
2021/10/29 01:01:54;;;;;;;;;;;;;;;21.45;31.40;98822.22;5001480;28;1141;-79
2021/10/29 01:04:19;;;;;;;;;;;;;;;21.53;31.28;98824.53;5000484;28;1906;-78
2021/10/29 01:06:45;;;;;;;;;;;;;;;21.55;30.96;98824.94;4985086;28;961;-79
2021/10/29 01:09:10;;;;;;;;;;;;;;;21.43;31.63;98833.19;5000212;28;969;-79
2021/10/29 01:11:36;;;;;;;;;;;;;;;21.84;31.28;98816.81;5001657;28;953;-79
2021/10/29 01:14:01;;;;;;;;;;;;;;;22.24;30.50;98828.41;4995529;28;990;-79
2021/10/29 01:16:27;;;;;;;;;;;;;;;21.72;30.84;98828.75;5008528;28;1085;-79
2021/10/29 01:18:52;;;;;;;;;;;;;;;21.53;31.18;98829.41;5021602;28;804;-79
2021/10/29 01:21:18;;;;;;;;;;;;;;;21.47;31.04;98831.09;5023028;28;889;-79
2021/10/29 01:23:43;;;;;;;;;;;;;;;21.58;30.95;98826.09;4979678;28;1902;-79
2021/10/29 01:26:10;;;;;;;;;;;;;;;21.61;31.17;98825.25;4981707;28;1113;-79
2021/10/29 01:28:36;;;;;;;;;;;;;;;21.57;31.22;98827.34;4979620;28;1088;-79
2021/10/29 01:31:01;;;;;;;;;;;;;;;21.51;31.35;98826.22;4982548;28;949;-79
2021/10/29 01:33:28;;;;;;;;;;;;;;;21.59;31.31;98827.69;4979841;28;894;-79
2021/10/29 01:35:54;;;;;;;;;;;;;;;21.58;31.35;98821.25;4965641;28;856;-79
2021/10/29 01:38:20;;;;;;;;;;;;;;;21.58;31.45;98823.28;4979756;28;996;-79
2021/10/29 01:40:45;;;;;;;;;;;;;;;21.57;31.59;98824.50;4981592;28;960;-79
2021/10/29 01:43:11;;;;;;;;;;;;;;;21.52;31.48;98822.16;4979819;28;1970;-79
2021/10/29 01:45:36;;;;;;;;;;;;;;;21.52;31.55;98833.47;4980794;28;949;-79
2021/10/29 01:48:02;;;;;;;;;;;;;;;21.54;31.32;98820.47;4979864;28;910;-79
2021/10/29 01:50:27;;;;;;;;;;;;;;;21.45;31.58;98822.22;4981070;28;1022;-79
2021/10/29 01:52:53;;;;;;;;;;;;;;;21.48;31.58;98824.22;4980474;28;934;-79
2021/10/29 01:55:18;;;;;;;;;;;;;;;21.47;31.55;98826.25;4995043;28;922;-79
2021/10/29 01:57:44;;;;;;;;;;;;;;;21.49;31.53;98828.63;4999962;28;967;-78
2021/10/29 02:00:10;;;;;;;;;;;;;;;21.55;31.36;98826.94;4999559;28;945;-79
2021/10/29 02:02:40;;;;;;;;;;;;;;;21.51;31.36;98820.53;5000057;28;1910;-79
2021/10/29 02:05:06;;;;;;;;;;;;;;;21.46;31.55;98823.84;5001469;28;1007;-79
2021/10/29 02:07:31;;;;;;;;;;;;;;;21.45;31.61;98825.06;5019592;28;980;-79
2021/10/29 02:09:57;;;;;;;;;;;;;;;21.41;31.38;98827.94;5018687;28;1171;-79
2021/10/29 02:12:22;;;;;;;;;;;;;;;21.47;31.51;98819.78;5019957;28;932;-79
2021/10/29 02:14:47;;;;;;;;;;;;;;;21.56;31.18;98822.91;5018269;28;932;-79
2021/10/29 02:17:13;;;;;;;;;;;;;;;21.46;31.61;98821.00;5003136;28;1273;-79
2021/10/29 02:19:38;;;;;;;;;;;;;;;21.36;31.42;98824.78;5018478;28;1022;-79
2021/10/29 02:22:04;;;;;;;;;;;;;;;21.49;31.30;98825.81;5019827;28;1015;-79
2021/10/29 02:24:30;;;;;;;;;;;;;;;21.40;31.33;98825.53;5018373;28;1909;-79
2021/10/29 02:26:55;;;;;;;;;;;;;;;21.40;31.65;98825.53;5020323;28;949;-79
2021/10/29 02:29:20;;;;;;;;;;;;;;;21.46;31.41;98823.84;4979402;28;925;-79
2021/10/29 02:31:46;;;;;;;;;;;;;;;21.55;31.23;98826.94;4980447;28;813;-79
2021/10/29 02:34:11;;;;;;;;;;;;;;;21.45;31.42;98823.03;4978898;28;929;-80
2021/10/29 02:36:37;;;;;;;;;;;;;;;21.48;31.34;98829.88;4980115;28;1046;-79
2021/10/29 02:39:02;;;;;;;;;;;;;;;21.53;31.06;98832.25;4978724;28;913;-79
2021/10/29 02:41:28;;;;;;;;;;;;;;;21.70;31.10;98828.34;4980157;28;951;-79
2021/10/29 02:43:53;;;;;;;;;;;;;;;21.95;31.08;98833.66;4978575;28;1907;-79
2021/10/29 02:46:19;;;;;;;;;;;;;;;21.91;30.45;98834.94;4980461;28;1058;-79
2021/10/29 02:48:44;;;;;;;;;;;;;;;21.64;30.90;98830.06;4978500;28;977;-79
2021/10/29 02:51:10;;;;;;;;;;;;;;;21.67;30.72;98823.56;4980064;28;986;-79
2021/10/29 02:53:36;;;;;;;;;;;;;;;21.74;30.42;98839.63;4978212;28;983;-79
2021/10/29 02:56:03;;;;;;;;;;;;;;;21.62;30.99;98841.03;4980552;28;923;-80
2021/10/29 02:58:31;;;;;;;;;;;;;;;21.47;31.35;98842.44;4978211;28;1000;-79
2021/10/29 03:00:57;;;;;;;;;;;;;;;21.46;31.13;98835.16;5011722;28;936;-79
2021/10/29 03:03:23;;;;;;;;;;;;;;;21.42;31.46;98840.06;5019727;28;1981;-79
2021/10/29 03:05:48;;;;;;;;;;;;;;;21.45;31.17;98839.22;5021560;28;936;-79
2021/10/29 03:08:13;;;;;;;;;;;;;;;21.45;31.35;98847.69;5019187;28;899;-79
2021/10/29 03:10:39;;;;;;;;;;;;;;;21.89;31.05;98840.25;5019357;28;937;-79
2021/10/29 03:13:04;;;;;;;;;;;;;;;22.02;30.79;98835.59;5020050;28;916;-80
2021/10/29 03:15:30;;;;;;;;;;;;;;;22.01;30.39;98836.81;5002143;28;1000;-79
2021/10/29 03:17:55;;;;;;;;;;;;;;;21.72;30.86;98842.91;5020447;28;1093;-79
2021/10/29 03:20:21;;;;;;;;;;;;;;;21.57;30.71;98835.84;5020358;28;1005;-78
2021/10/29 03:22:46;;;;;;;;;;;;;;;21.55;31.12;98838.25;5020368;28;1906;-79
2021/10/29 03:25:12;;;;;;;;;;;;;;;21.51;31.26;98829.03;5019931;28;1171;-79
2021/10/29 03:27:37;;;;;;;;;;;;;;;21.71;31.36;98838.47;5020976;28;998;-79
2021/10/29 03:30:03;;;;;;;;;;;;;;;22.14;30.63;98834.25;5019294;28;901;-79
2021/10/29 03:32:28;;;;;;;;;;;;;;;21.96;30.13;98840.13;5020298;28;849;-79
2021/10/29 03:34:54;;;;;;;;;;;;;;;21.71;30.73;98841.31;5019669;28;779;-79
2021/10/29 03:40:17;;;;;;;;;;;;;;;21.62;31.06;98843.84;5019365;28;938;-79
2021/10/29 03:42:56;;;;;;;;;;;;;;;21.60;31.11;98840.63;5020053;28;1910;-79
2021/10/29 03:45:22;;;;;;;;;;;;;;;21.59;31.10;98841.84;5020071;28;913;-79
2021/10/29 03:47:53;;;;;;;;;;;;;;;21.47;31.30;98842.44;5019806;28;853;-79
2021/10/29 03:50:26;;;;;;;;;;;;;;;21.52;30.92;98839.13;5019953;28;719;-79
2021/10/29 03:53:25;;;;;;;;;;;;;;;21.44;31.03;98838.41;5019971;28;870;-80
2021/10/29 03:55:42;;;;;;;;;;;;;;;21.42;31.06;98845.72;5020414;28;1059;-79
2021/10/29 03:58:07;;;;;;;;;;;;;;;21.55;30.99;98835.44;5018816;28;914;-79
2021/10/29 04:00:33;;;;;;;;;;;;;;;21.54;30.85;98842.31;5017961;28;946;-79
2021/10/29 04:03:02;;;;;;;;;;;;;;;21.80;31.02;98843.59;5017502;28;1922;-79
2021/10/29 04:05:34;;;;;;;;;;;;;;;22.24;30.23;98845.41;4970773;28;1005;-79
2021/10/29 04:07:59;;;;;;;;;;;;;;;21.93;30.57;98846.66;5016709;28;1082;-79
2021/10/29 04:10:26;;;;;;;;;;;;;;;21.70;30.90;98845.34;5017827;28;968;-78
2021/10/29 04:12:52;;;;;;;;;;;;;;;21.69;30.77;98843.75;4971335;28;1162;-78
2021/10/29 04:15:18;;;;;;;;;;;;;;;21.54;31.20;98842.31;5021165;28;992;-79
2021/10/29 04:17:43;;;;;;;;;;;;;;;21.45;31.28;98842.03;5021438;28;1144;-79
2021/10/29 04:20:09;;;;;;;;;;;;;;;21.44;31.36;98848.94;5020711;28;992;-78
2021/10/29 04:22:34;;;;;;;;;;;;;;;21.50;31.41;98847.22;5021389;28;1989;-79
2021/10/29 04:25:00;;;;;;;;;;;;;;;21.61;30.97;98836.59;5020241;28;1110;-79
2021/10/29 04:27:31;;;;;;;;;;;;;;;21.52;31.15;98845.59;5021551;28;1031;-79
2021/10/29 04:29:57;;;;;;;;;;;;;;;21.42;31.43;98842.91;5020028;28;802;-79
2021/10/29 04:32:22;;;;;;;;;;;;;;;21.47;30.99;98842.44;5023141;28;808;-79
2021/10/29 04:34:47;;;;;;;;;;;;;;;21.92;30.77;98850.75;5022396;28;726;-79
2021/10/29 04:37:13;;;;;;;;;;;;;;;22.02;30.70;98841.25;5023495;28;922;-78
2021/10/29 04:39:38;;;;;;;;;;;;;;;21.64;30.99;98852.72;5019567;28;1035;-79
2021/10/29 04:42:04;;;;;;;;;;;;;;;21.64;30.65;98852.72;5020708;28;887;-79
2021/10/29 04:44:29;;;;;;;;;;;;;;;21.57;30.82;98847.97;5019466;28;2005;-79
2021/10/29 04:46:55;;;;;;;;;;;;;;;21.41;31.50;98844.13;4981341;28;896;-79
2021/10/29 04:49:20;;;;;;;;;;;;;;;21.39;31.15;98853.03;4980188;28;1021;-79
2021/10/29 04:51:46;;;;;;;;;;;;;;;21.41;31.46;98849.78;4981948;28;815;-79
2021/10/29 04:54:11;;;;;;;;;;;;;;;21.43;31.28;98853.78;4980542;28;877;-79
2021/10/29 04:56:37;;;;;;;;;;;;;;;21.50;30.93;98852.88;4981494;28;773;-79
2021/10/29 04:59:02;;;;;;;;;;;;;;;21.47;31.23;98843.22;4980454;28;840;-79
2021/10/29 05:01:28;;;;;;;;;;;;;;;21.45;31.21;98853.38;4981289;28;952;-79
2021/10/29 05:03:53;;;;;;;;;;;;;;;21.30;31.57;98850.72;4979953;28;1981;-79
2021/10/29 05:06:19;;;;;;;;;;;;;;;21.49;31.18;98854.94;4981259;28;1009;-79
2021/10/29 05:08:44;;;;;;;;;;;;;;;21.75;31.29;98850.53;4963094;28;907;-79
2021/10/29 05:11:09;;;;;;;;;;;;;;;22.03;30.45;98851.38;4967323;28;811;-79
2021/10/29 05:13:35;;;;;;;;;;;;;;;21.99;30.15;98857.09;4960309;29;1029;-79
2021/10/29 05:16:00;;;;;;;;;;;;;;;21.69;30.81;98852.25;4981907;28;1049;-79
2021/10/29 05:18:26;;;;;;;;;;;;;;;21.44;31.03;98855.41;4978700;28;857;-79
2021/10/29 05:20:51;;;;;;;;;;;;;;;21.41;31.05;98849.78;4982233;28;902;-79
2021/10/29 05:23:17;;;;;;;;;;;;;;;21.44;31.28;98852.56;4979029;28;1902;-79
2021/10/29 05:25:42;;;;;;;;;;;;;;;21.46;31.27;98852.16;4981673;28;941;-78
2021/10/29 05:28:09;;;;;;;;;;;;;;;21.39;31.53;98850.19;4960248;29;922;-79
2021/10/29 05:30:34;;;;;;;;;;;;;;;21.63;30.79;98855.97;4942281;29;1010;-79
2021/10/29 05:33:00;;;;;;;;;;;;;;;21.82;31.09;98858.97;4903425;29;956;-79
2021/10/29 05:35:25;;;;;;;;;;;;;;;22.10;30.17;98857.75;4904203;29;857;-79
2021/10/29 05:37:51;;;;;;;;;;;;;;;21.79;30.56;98865.47;4903904;29;935;-79
2021/10/29 05:40:17;;;;;;;;;;;;;;;21.60;30.64;98863.28;4904005;29;762;-79
2021/10/29 05:42:43;;;;;;;;;;;;;;;21.68;30.68;98869.66;4903870;29;1979;-80
2021/10/29 05:45:09;;;;;;;;;;;;;;;21.55;31.00;98869.41;4902881;29;936;-79
2021/10/29 05:47:34;;;;;;;;;;;;;;;21.57;30.84;98876.28;4904233;29;882;-79
2021/10/29 05:50:00;;;;;;;;;;;;;;;21.49;31.16;98871.13;4902998;29;937;-79
2021/10/29 05:52:27;;;;;;;;;;;;;;;21.51;31.14;98877.19;4905300;29;808;-79
2021/10/29 05:57:21;;;;;;;;;;;;;;;21.31;31.26;98874.97;4903940;29;879;-79
2021/10/29 05:59:47;;;;;;;;;;;;;;;21.73;31.02;98889.03;4917208;29;1208;-79
2021/10/29 06:02:12;;;;;;;;;;;;;;;22.04;30.52;98875.66;4953150;29;828;-79
2021/10/29 06:04:38;;;;;;;;;;;;;;;21.77;30.75;98878.47;5007076;28;1989;-79
2021/10/29 06:07:03;;;;;;;;;;;;;;;21.58;30.83;98877.06;5019374;28;939;-79
2021/10/29 06:09:29;;;;;;;;;;;;;;;21.61;30.43;98881.91;5018090;28;904;-79
2021/10/29 06:11:54;;;;;;;;;;;;;;;21.64;30.56;98886.69;4980950;28;1015;-78
2021/10/29 06:14:20;;;;;;;;;;;;;;;21.60;30.97;98891.59;4979223;28;1018;-79
2021/10/29 06:16:45;;;;;;;;;;;;;;;21.97;30.75;98889.94;4960810;29;1083;-78
2021/10/29 06:19:11;;;;;;;;;;;;;;;22.03;30.37;98888.22;4959384;29;771;-79
2021/10/29 06:21:44;;;;;;;;;;;;;;;21.70;30.54;98890.66;4960762;29;897;-79
2021/10/29 06:24:15;;;;;;;;;;;;;;;21.59;30.65;98895.66;4959564;28;1970;-79
2021/10/29 06:26:48;;;;;;;;;;;;;;;21.45;30.95;98887.34;4960554;29;841;-79
2021/10/29 06:29:14;;;;;;;;;;;;;;;21.65;31.50;98888.31;4943781;29;949;-79
2021/10/29 06:31:40;;;;;;;;;;;;;;;21.94;30.69;98887.94;4960594;28;883;-80
2021/10/29 06:34:10;;;;;;;;;;;;;;;22.00;30.58;98886.22;4958268;28;908;-79
2021/10/29 06:36:35;;;;;;;;;;;;;;;21.67;30.80;98885.88;4960299;28;938;-79
2021/10/29 06:39:02;;;;;;;;;;;;;;;21.59;30.61;98890.00;4941588;28;946;-79
2021/10/29 06:41:28;;;;;;;;;;;;;;;21.63;30.55;98890.78;4941121;29;881;-79
2021/10/29 06:49:09;;;;;;;;;;;;;;;21.51;31.13;98905.50;4959298;29;863;-79
2021/10/29 07:05:04;;;;;;;;;;;;;;;21.63;30.48;98896.44;4901894;29;1983;-79
2021/10/29 07:40:14;;;;;;;;;;;;;;;21.50;31.36;98910.34;4883358;29;788;-79
2021/10/29 07:45:09;;;;;;;;;;;;;;;21.54;31.00;98911.09;4846148;29;1039;-79
2021/10/29 07:47:35;;;;;;;;;;;;;;;21.53;31.13;98920.81;4835776;29;1119;-79
2021/10/29 07:50:01;;;;;;;;;;;;;;;21.45;31.21;98912.81;4830598;29;970;-79
2021/10/29 07:52:26;;;;;;;;;;;;;;;21.53;31.21;98909.50;4832997;29;884;-79
2021/10/29 07:54:52;;;;;;;;;;;;;;;21.44;31.31;98908.38;4854655;29;920;-78
2021/10/29 07:57:18;;;;;;;;;;;;;;;21.72;31.29;98910.09;4869458;29;951;-79
2021/10/29 07:59:45;;;;;;;;;;;;;;;21.94;31.15;98911.41;4845399;29;1163;-79
2021/10/29 08:02:10;;;;;;;;;;;;;;;22.12;31.07;98907.53;4869667;29;1053;-79
2021/10/29 08:04:36;;;;;;;;;;;;;;;21.72;31.07;98910.09;4867415;29;1974;-79
2021/10/29 08:07:01;;;;;;;;;;;;;;;21.70;30.97;98913.31;4869379;29;1003;-79
2021/10/29 08:09:27;;;;;;;;;;;;;;;21.67;31.00;98902.06;4865694;29;976;-79
2021/10/29 08:11:53;;;;;;;;;;;;;;;21.67;30.99;98908.53;4869432;29;959;-79
2021/10/29 08:14:20;;;;;;;;;;;;;;;21.62;30.97;98900.50;4868130;29;893;-79
2021/10/29 08:16:45;;;;;;;;;;;;;;;21.54;31.23;98910.28;4883726;29;1105;-79
2021/10/29 08:19:11;;;;;;;;;;;;;;;21.65;30.82;98905.28;4885972;29;865;-79
2021/10/29 08:21:37;;;;;;;;;;;;;;;21.45;31.21;98904.31;4902569;29;898;-79
2021/10/29 08:24:02;;;;;;;;;;;;;;;21.62;31.03;98900.50;4904728;29;1990;-79
2021/10/29 08:26:28;;;;;;;;;;;;;;;21.58;31.19;98905.41;4910238;29;847;-79
2021/10/29 08:28:53;;;;;;;;;;;;;;;21.76;31.65;98905.16;4942382;29;866;-79
2021/10/29 08:31:19;;;;;;;;;;;;;;;22.14;30.96;98905.91;4977494;28;814;-79
2021/10/29 08:33:44;;;;;;;;;;;;;;;21.94;30.82;98899.28;5020299;28;954;-79
2021/10/29 08:36:12;;;;;;;;;;;;;;;21.76;31.11;98900.31;5007601;28;697;-79
2021/10/29 08:38:38;;;;;;;;;;;;;;;21.83;30.65;98899.41;5022194;28;830;-79
2021/10/29 08:41:03;;;;;;;;;;;;;;;21.69;31.04;98899.59;5024626;28;750;-79
2021/10/29 08:43:29;;;;;;;;;;;;;;;21.58;31.22;98894.06;5021845;28;1973;-79
2021/10/29 08:45:54;;;;;;;;;;;;;;;21.51;31.25;98897.78;5025049;28;787;-79
2021/10/29 08:48:20;;;;;;;;;;;;;;;21.61;31.20;98890.41;5021366;28;703;-79
2021/10/29 08:50:45;;;;;;;;;;;;;;;21.74;31.00;98891.44;5024440;28;869;-79
2021/10/29 08:53:11;;;;;;;;;;;;;;;21.58;31.28;98894.88;5022518;28;779;-79
2021/10/29 08:55:38;;;;;;;;;;;;;;;21.66;31.09;98889.09;5023470;28;738;-78
2021/10/29 08:58:06;;;;;;;;;;;;;;;21.54;31.34;98896.13;5021204;28;931;-79
2021/10/29 09:00:33;;;;;;;;;;;;;;;21.55;30.97;98895.72;5021684;28;981;-79
2021/10/29 09:03:13;;;;;;;;;;;;;;;21.74;31.80;98902.75;5020342;28;1910;-79
2021/10/29 09:05:53;;;;;;;;;;;;;;;22.01;31.36;98893.50;5021391;28;886;-79
2021/10/29 09:32:54;;;;;;;;;;;;;;;21.71;31.13;98874.47;4961330;29;939;-79
2021/10/29 09:35:20;;;;;;;;;;;;;;;21.68;30.49;98887.47;4961926;29;1185;-79
2021/10/29 09:38:01;;;;;;;;;;;;;;;21.46;30.67;98880.47;4946011;29;1362;-79
2021/10/29 09:41:00;;;;;;;;;;;;;;;21.37;31.14;98883.81;4906084;29;920;-79
2021/10/29 09:43:25;;;;;;;;;;;;;;;21.78;30.74;98880.84;4902678;29;1906;-79
2021/10/29 09:45:57;;;;;;;;;;;;;;;22.01;30.21;98882.16;4906082;29;1001;-79
2021/10/29 09:48:32;;;;;;;;;;;;;;;21.90;30.23;98881.50;4903168;29;834;-79
2021/10/29 09:50:59;;;;;;;;;;;;;;;21.59;30.44;98878.69;4868676;29;932;-79
2021/10/29 09:58:41;;;;;;;;;;;;;;;21.62;31.04;98868.53;4865663;29;919;-79
2021/10/29 10:01:06;;;;;;;;;;;;;;;21.99;30.60;98873.28;4868142;29;766;-79
2021/10/29 10:03:32;;;;;;;;;;;;;;;21.91;30.37;98866.91;4886425;29;1914;-79
2021/10/29 10:05:57;;;;;;;;;;;;;;;21.70;30.90;98862.34;4905757;29;802;-79
2021/10/29 10:08:24;;;;;;;;;;;;;;;21.65;30.89;98865.66;4903155;29;899;-79
2021/10/29 10:10:53;;;;;;;;;;;;;;;21.54;30.83;98860.13;4886617;29;1009;-79
2021/10/29 10:13:18;;;;;;;;;;;;;;;21.47;30.89;98853.75;4885045;29;1365;-79
2021/10/29 10:15:47;;;;;;;;;;;;;;;21.51;31.02;98854.53;4904983;29;864;-79
2021/10/29 10:18:14;;;;;;;;;;;;;;;21.49;31.09;98856.97;4952399;29;1283;-79
2021/10/29 10:20:40;;;;;;;;;;;;;;;21.37;31.52;98854.69;4979729;28;805;-79
2021/10/29 10:23:07;;;;;;;;;;;;;;;21.44;31.05;98854.59;5017981;28;1906;-79
2021/10/29 10:25:43;;;;;;;;;;;;;;;21.38;31.50;98856.28;5003971;28;857;-79
2021/10/29 10:30:38;;;;;;;;;;;;;;;21.75;31.64;98853.38;5020173;28;809;-79
2021/10/29 10:47:02;;;;;;;;;;;;;;;21.61;31.20;98853.59;4927298;29;930;-79
2021/10/29 10:49:57;;;;;;;;;;;;;;;21.53;30.90;98846.41;4921090;29;1292;-79
2021/10/29 10:54:53;;;;;;;;;;;;;;;21.96;31.13;98840.94;4864822;29;957;-79
2021/10/29 11:00:00;;;;;;;;;;;;;;;21.82;30.73;98841.97;4864709;29;1930;-79
2021/10/29 11:10:15;;;;;;;;;;;;;;;21.46;31.59;98835.16;4846534;29;932;-79
2021/10/29 11:12:41;;;;;;;;;;;;;;;21.61;31.85;98842.25;4848119;29;849;-80
2021/10/29 11:15:10;;;;;;;;;;;;;;;22.01;30.96;98831.16;4857451;29;990;-79
2021/10/29 11:17:55;;;;;;;;;;;;;;;22.03;30.79;98840.84;4865997;29;1141;-79
2021/10/29 11:20:33;;;;;;;;;;;;;;;21.71;31.19;98834.81;4863580;29;1009;-79
2021/10/29 11:23:03;;;;;;;;;;;;;;;21.65;31.35;98837.31;4902049;29;1907;-79
2021/10/29 11:25:28;;;;;;;;;;;;;;;21.49;31.27;98834.31;4887344;29;999;-79
2021/10/29 11:27:55;;;;;;;;;;;;;;;21.56;31.25;98828.56;4899393;29;752;-79
2021/10/29 11:30:21;;;;;;;;;;;;;;;21.47;31.43;98836.78;4938003;28;944;-79
2021/10/29 11:32:50;;;;;;;;;;;;;;;21.41;31.59;98821.50;4979202;28;740;-79
2021/10/29 11:35:18;;;;;;;;;;;;;;;21.38;31.59;98833.66;4994582;28;796;-79
2021/10/29 11:37:44;;;;;;;;;;;;;;;21.48;31.12;98833.50;4979618;28;910;-79
2021/10/29 11:40:10;;;;;;;;;;;;;;;21.28;31.57;98830.47;4994335;28;859;-79
2021/10/29 11:42:37;;;;;;;;;;;;;;;21.72;31.49;98834.41;4979189;28;884;-79
2021/10/29 11:45:03;;;;;;;;;;;;;;;21.95;31.31;98828.00;4974465;28;1910;-79
2021/10/29 11:47:30;;;;;;;;;;;;;;;22.01;30.63;98819.81;4944016;29;975;-78
2021/10/29 11:50:10;;;;;;;;;;;;;;;21.78;31.40;98821.38;4942901;29;803;-79
2021/10/29 11:52:36;;;;;;;;;;;;;;;21.71;31.43;98817.81;4963565;28;807;-79
2021/10/29 11:55:06;;;;;;;;;;;;;;;21.66;31.50;98816.28;4978312;28;927;-79
2021/10/29 11:57:45;;;;;;;;;;;;;;;21.50;31.70;98813.25;4979303;28;855;-79
2021/10/29 12:00:24;;;;;;;;;;;;;;;21.58;31.49;98814.78;4977927;28;1340;-79
2021/10/29 12:08:21;;;;;;;;;;;;;;;21.43;31.50;98814.16;4989384;28;757;-80
2021/10/29 12:10:49;;;;;;;;;;;;;;;21.33;31.82;98815.91;5018500;28;774;-79
2021/10/29 12:13:15;;;;;;;;;;;;;;;21.71;31.67;98812.16;5016221;28;914;-79
2021/10/29 12:15:40;;;;;;;;;;;;;;;21.91;31.82;98810.25;5018496;28;1064;-79
2021/10/29 12:18:07;;;;;;;;;;;;;;;21.95;31.20;98807.38;5016870;28;1226;-79
2021/10/29 12:20:38;;;;;;;;;;;;;;;21.67;31.63;98809.41;5018038;28;1032;-79
2021/10/29 12:23:09;;;;;;;;;;;;;;;21.66;31.38;98804.13;4997050;28;1898;-79
2021/10/29 12:30:32;;;;;;;;;;;;;;;21.50;31.47;98799.09;4998584;28;751;-79
2021/10/29 12:52:52;;;;;;;;;;;;;;;21.75;31.51;98808.03;4963289;29;927;-79
2021/10/29 13:03:02;;;;;;;;;;;;;;;21.47;31.70;98814.13;4959496;29;1899;-79
2021/10/29 13:05:28;;;;;;;;;;;;;;;21.42;31.80;98817.41;4963052;29;999;-79
2021/10/29 13:07:53;;;;;;;;;;;;;;;21.52;31.82;98814.44;4961955;29;917;-79
2021/10/29 13:10:19;;;;;;;;;;;;;;;21.57;31.38;98807.50;4961967;29;724;-79
2021/10/29 13:15:20;;;;;;;;;;;;;;;21.49;31.82;98811.66;5042532;28;787;-79
2021/10/29 13:17:59;;;;;;;;;;;;;;;21.59;31.64;98811.50;5043098;28;1205;-79
2021/10/29 13:20:56;;;;;;;;;;;;;;;21.66;31.39;98821.97;5042892;28;1009;-79
2021/10/29 14:30:09;;;;;;;;;;;;;;;21.44;31.86;98798.78;4965555;28;1062;-79
2021/10/29 14:32:49;;;;;;;;;;;;;;;21.83;32.04;98803.88;4984580;28;924;-80
2021/10/29 14:35:22;;;;;;;;;;;;;;;22.11;31.58;98799.03;4998599;28;975;-79
2021/10/29 14:40:22;;;;;;;;;;;;;;;21.74;31.69;98797.16;4982179;28;917;-80
2021/10/29 14:42:51;;;;;;;;;;;;;;;21.68;31.87;98807.34;4999703;28;815;-79
2021/10/29 15:06:48;;;;;;;;;;;;;;;21.64;32.17;98813.06;5020166;28;844;-79
2021/10/29 15:30:24;;;;;;;;;;;;;;;21.50;32.10;98818.91;4978381;28;1826;-78
2021/10/29 15:45:56;;;;;;;;;;;;;;;21.61;32.27;98830.94;4980562;28;822;-79
2021/10/29 15:48:28;;;;;;;;;;;;;;;21.72;32.02;98820.25;4978059;28;1747;-80
2021/10/29 15:50:53;;;;;;;;;;;;;;;21.73;31.72;98823.88;4980744;28;959;-78
2021/10/29 15:53:19;;;;;;;;;;;;;;;21.60;32.20;98820.81;4978049;28;875;-79
2021/10/29 15:55:51;;;;;;;;;;;;;;;21.60;32.24;98829.31;5018758;28;869;-79
2021/10/29 15:58:42;;;;;;;;;;;;;;;21.53;32.49;98818.06;5016753;28;889;-79
2021/10/29 16:17:42;;;;;;;;;;;;;;;21.71;32.24;98834.81;4982416;28;1095;-79
2021/10/29 16:20:07;;;;;;;;;;;;;;;21.67;31.95;98837.72;4950094;29;995;-79
2021/10/29 16:22:35;;;;;;;;;;;;;;;21.71;31.89;98841.31;4979367;28;983;-79
2021/10/29 16:30:13;;;;;;;;;;;;;;;21.62;32.08;98843.06;4923980;29;904;-79
2021/10/29 16:35:23;;;;;;;;;;;;;;;21.65;33.02;98847.84;4868425;29;796;-79
2021/10/29 16:37:48;;;;;;;;;;;;;;;21.82;32.99;98861.78;4859577;29;955;-79
2021/10/29 16:40:14;;;;;;;;;;;;;;;21.93;32.52;98855.97;4878190;29;941;-79
2021/10/29 16:42:41;;;;;;;;;;;;;;;21.83;32.40;98854.88;4868064;29;1015;-79
2021/10/29 16:45:06;;;;;;;;;;;;;;;21.63;32.24;98851.13;4867508;29;1916;-79
2021/10/29 16:47:32;;;;;;;;;;;;;;;21.62;32.21;98855.19;4868639;29;918;-80
2021/10/29 16:49:58;;;;;;;;;;;;;;;21.51;32.41;98860.19;4867255;29;812;-79
2021/10/29 16:52:25;;;;;;;;;;;;;;;21.61;32.24;98859.25;4869029;29;894;-79
2021/10/29 16:54:51;;;;;;;;;;;;;;;21.58;32.50;98854.41;4867396;29;872;-79
2021/10/29 16:57:16;;;;;;;;;;;;;;;21.57;32.34;98859.28;4868495;29;942;-80
2021/10/29 16:59:42;;;;;;;;;;;;;;;21.61;32.24;98864.13;4867563;29;840;-79
2021/10/29 17:02:08;;;;;;;;;;;;;;;21.61;32.34;98864.13;4925587;29;904;-79
2021/10/29 17:04:34;;;;;;;;;;;;;;;21.56;32.46;98862.56;4974604;28;1902;-79
2021/10/29 17:06:59;;;;;;;;;;;;;;;21.35;32.62;98863.63;4982391;28;771;-79
2021/10/29 17:09:27;;;;;;;;;;;;;;;21.52;32.24;98861.78;4980999;28;971;-79
2021/10/29 17:11:53;;;;;;;;;;;;;;;21.47;32.31;98853.75;4982643;28;863;-79
2021/10/29 17:14:18;;;;;;;;;;;;;;;21.63;33.11;98865.28;4976286;28;874;-79
2021/10/29 17:16:44;;;;;;;;;;;;;;;21.83;32.88;98859.75;4982182;28;1090;-79
2021/10/29 17:19:09;;;;;;;;;;;;;;;21.91;32.15;98857.59;4979991;28;739;-79
2021/10/29 17:21:35;;;;;;;;;;;;;;;21.81;31.94;98857.34;4982273;28;731;-79
2021/10/29 17:24:00;;;;;;;;;;;;;;;21.64;31.85;98863.25;4948689;28;2007;-79
2021/10/29 17:26:27;;;;;;;;;;;;;;;21.44;32.30;98855.41;4982181;28;925;-79
2021/10/29 17:28:53;;;;;;;;;;;;;;;21.46;32.22;98855.00;4947882;28;1102;-80
2021/10/29 17:31:19;;;;;;;;;;;;;;;21.71;31.92;98852.63;4982010;28;969;-79
2021/10/29 17:33:45;;;;;;;;;;;;;;;21.65;31.87;98862.00;4980052;28;799;-79
2021/10/29 17:36:11;;;;;;;;;;;;;;;21.54;32.06;98865.78;4982446;28;747;-79
2021/10/29 17:38:37;;;;;;;;;;;;;;;21.41;32.31;98863.94;4963944;28;1330;-79
2021/10/29 17:41:03;;;;;;;;;;;;;;;21.44;32.43;98865.91;4983660;28;839;-79
2021/10/29 17:43:29;;;;;;;;;;;;;;;21.50;32.48;98867.06;4979551;28;1911;-79
2021/10/29 17:45:56;;;;;;;;;;;;;;;21.66;33.17;98872.94;4982760;28;878;-80
2021/10/29 17:48:21;;;;;;;;;;;;;;;21.89;32.69;98875.03;4979185;28;835;-78
2021/10/29 17:50:48;;;;;;;;;;;;;;;22.03;32.28;98868.38;4988847;28;784;-79
2021/10/29 17:53:16;;;;;;;;;;;;;;;21.67;32.33;98868.88;5040653;28;740;-79
2021/10/29 17:55:42;;;;;;;;;;;;;;;21.52;32.56;98867.44;5042529;28;866;-79
2021/10/29 17:58:07;;;;;;;;;;;;;;;21.54;32.40;98864.97;5041076;28;715;-79
2021/10/29 18:00:33;;;;;;;;;;;;;;;21.55;32.13;98872.25;5042469;28;746;-79
2021/10/29 18:02:58;;;;;;;;;;;;;;;21.48;32.21;98867.47;5041729;28;778;-79
2021/10/29 18:05:26;;;;;;;;;;;;;;;21.56;32.29;98865.38;5006760;28;985;-79
2021/10/29 18:07:54;;;;;;;;;;;;;;;21.50;32.54;98870.72;5041838;28;802;-79
2021/10/29 18:10:20;;;;;;;;;;;;;;;21.52;32.48;98861.78;5042057;28;786;-79
2021/10/29 18:12:45;;;;;;;;;;;;;;;21.42;32.38;98868.38;5041784;28;814;-79